createdAt,value
2016-03-28T12:33:47.364Z,170
2016-03-28T12:33:59.864Z,175
2016-03-28T12:35:00.414Z,175
2016-03-28T12:36:00.105Z,190
2016-03-28T12:37:00.123Z,165
2016-03-28T12:38:00.235Z,130
2016-03-28T12:39:00.144Z,140
2016-03-28T12:40:00.161Z,165
2016-03-28T12:41:00.196Z,205
2016-03-28T12:42:00.211Z,160
2016-03-28T12:43:00.232Z,145
2016-03-28T12:44:00.237Z,140
2016-03-28T12:45:00.100Z,140
2016-03-28T12:46:00.246Z,140
2016-03-28T12:47:00.284Z,165
2016-03-28T12:48:00.298Z,160
2016-03-28T12:49:00.327Z,145
2016-03-28T12:50:00.342Z,150
2016-03-28T12:51:00.354Z,165
2016-03-28T12:52:00.385Z,205
2016-03-28T12:53:00.276Z,155
2016-03-28T12:54:00.417Z,170
2016-03-28T12:55:00.434Z,185
2016-03-28T12:56:00.467Z,155
2016-03-28T12:57:00.529Z,130
2016-03-28T12:58:00.547Z,120
2016-03-28T12:59:00.566Z,110
2016-03-28T13:00:00.584Z,125
2016-03-28T13:01:00.617Z,180
2016-03-28T13:02:00.635Z,160
2016-03-28T13:03:00.654Z,195
2016-03-28T13:04:00.687Z,125
2016-03-28T13:05:00.720Z,110
2016-03-28T13:06:00.739Z,115
2016-03-28T13:07:00.756Z,115
2016-03-28T13:08:00.931Z,110
2016-03-28T13:09:00.808Z,115
2016-03-28T13:10:00.843Z,110
2016-03-28T13:11:00.877Z,110
2016-03-28T13:12:00.910Z,110
2016-03-28T13:13:00.913Z,110
2016-03-28T13:14:00.963Z,115
2016-03-28T13:15:00.965Z,115
2016-03-28T13:16:00.984Z,120
2016-03-28T13:17:01.018Z,125
2016-03-28T13:18:01.067Z,130
2016-03-28T13:19:01.085Z,130
2016-03-28T13:20:01.104Z,125
2016-03-28T13:21:01.138Z,130
2016-03-28T13:22:01.140Z,115
2016-03-28T13:23:01.049Z,110
2016-03-28T13:24:01.176Z,100
2016-03-28T13:25:01.211Z,90
2016-03-28T13:26:01.229Z,85
2016-03-28T13:27:01.278Z,85
2016-03-28T13:28:01.312Z,80
2016-03-28T13:29:01.347Z,80
2016-03-28T13:30:01.724Z,80
2016-03-28T13:31:01.352Z,85
2016-03-28T13:32:01.402Z,90
2016-03-28T13:33:01.263Z,90
2016-03-28T13:34:01.438Z,90
2016-03-28T13:35:01.456Z,90
2016-03-28T13:36:01.491Z,85
2016-03-28T13:37:01.618Z,90
2016-03-28T13:38:01.558Z,85
2016-03-28T13:39:01.577Z,95
2016-03-28T13:40:01.594Z,90
2016-03-28T13:41:01.613Z,85
2016-03-28T13:42:01.663Z,85
2016-03-28T13:43:01.681Z,80
2016-03-28T13:44:01.699Z,75
2016-03-28T13:45:01.718Z,75
2016-03-28T13:46:01.752Z,75
2016-03-28T13:47:01.770Z,70
2016-03-28T13:48:01.788Z,75
2016-03-28T13:49:01.822Z,75
2016-03-28T13:50:01.840Z,80
2016-03-28T13:51:01.859Z,80
2016-03-28T13:52:01.908Z,80
2016-03-28T13:53:01.912Z,80
2016-03-28T13:54:01.929Z,80
2016-03-28T13:55:01.807Z,80
2016-03-28T13:56:01.982Z,85
2016-03-28T13:57:02.000Z,80
2016-03-28T13:58:02.065Z,85
2016-03-28T13:59:02.052Z,80
2016-03-28T14:00:01.977Z,80
2016-03-28T14:01:02.108Z,85
2016-03-28T14:02:02.127Z,80
2016-03-28T14:03:02.161Z,80
2016-03-28T14:04:02.195Z,80
2016-03-28T14:05:02.213Z,80
2016-03-28T14:06:02.247Z,80
2016-03-28T14:07:02.236Z,80
2016-03-28T14:08:02.270Z,80
2016-03-28T14:09:02.319Z,80
2016-03-28T14:10:02.322Z,80
2016-03-28T14:11:02.355Z,75
2016-03-28T14:12:02.374Z,75
2016-03-28T14:13:02.377Z,75
2016-03-28T14:14:02.442Z,80
2016-03-28T14:15:02.444Z,85
2016-03-28T14:16:02.478Z,80
2016-03-28T14:17:02.497Z,80
2016-03-28T14:18:02.515Z,80
2016-03-28T14:19:02.533Z,80
2016-03-28T14:20:02.552Z,80
2016-03-28T14:21:02.586Z,80
2016-03-28T14:22:02.683Z,80
2016-03-28T14:23:02.638Z,80
2016-03-28T14:24:02.657Z,80
2016-03-28T14:25:02.675Z,75
2016-03-28T14:26:02.693Z,80
2016-03-28T14:27:02.712Z,75
2016-03-28T14:28:02.761Z,85
2016-03-28T14:29:02.779Z,80
2016-03-28T14:30:02.782Z,80
2016-03-28T14:31:02.816Z,80
2016-03-28T14:32:02.834Z,80
2016-03-28T14:33:02.837Z,75
2016-03-28T14:34:02.871Z,75
2016-03-28T14:35:02.904Z,125
2016-03-28T14:36:02.923Z,75
2016-03-28T14:37:02.942Z,95
2016-03-28T14:38:02.976Z,115
2016-03-28T14:39:02.994Z,90
2016-03-28T14:40:03.012Z,80
2016-03-28T14:41:03.046Z,85
2016-03-28T14:42:03.064Z,75
2016-03-28T14:43:03.098Z,70
2016-03-28T14:44:03.101Z,65
2016-03-28T14:45:03.135Z,60
2016-03-28T14:46:03.153Z,60
2016-03-28T14:47:03.047Z,55
2016-03-28T14:48:03.189Z,55
2016-03-28T14:50:03.242Z,50
2016-03-28T14:51:03.276Z,50
2016-03-28T14:52:03.295Z,50
2016-03-28T14:53:03.313Z,50
2016-03-28T14:54:03.363Z,50
2016-03-28T14:55:03.365Z,50
2016-03-28T14:56:03.399Z,50
2016-03-28T14:57:03.433Z,50
2016-03-28T14:58:03.421Z,50
2016-03-28T14:59:03.454Z,45
2016-03-28T15:00:03.457Z,45
2016-03-28T15:01:03.475Z,45
2016-03-28T15:02:03.509Z,40
2016-03-28T15:03:03.527Z,35
2016-03-28T15:04:03.561Z,35
2016-03-28T15:05:03.579Z,35
2016-03-28T15:06:03.442Z,35
2016-03-28T15:07:03.475Z,35
2016-03-28T15:08:03.665Z,35
2016-03-28T15:09:03.668Z,40
2016-03-28T15:10:03.686Z,40
2016-03-28T15:11:03.720Z,45
2016-03-28T15:12:03.739Z,50
2016-03-28T15:13:03.756Z,55
2016-03-28T15:14:03.791Z,60
2016-03-28T15:15:03.809Z,60
2016-03-28T15:16:03.828Z,60
2016-03-28T15:17:03.861Z,60
2016-03-28T15:18:03.864Z,60
2016-03-28T15:19:03.883Z,60
2016-03-28T15:20:03.963Z,100
2016-03-28T15:21:03.919Z,90
2016-03-28T15:22:03.938Z,70
2016-03-28T15:23:03.971Z,95
2016-03-28T15:24:04.021Z,55
2016-03-28T15:25:04.008Z,55
2016-03-28T15:26:04.041Z,50
2016-03-28T15:27:04.076Z,45
2016-03-28T15:28:04.094Z,45
2016-03-28T15:29:04.004Z,45
2016-03-28T15:30:04.006Z,45
2016-03-28T15:31:04.165Z,40
2016-03-28T15:32:04.152Z,40
2016-03-28T15:33:04.232Z,40
2016-03-28T15:34:04.204Z,40
2016-03-28T15:35:04.238Z,40
2016-03-28T15:36:04.272Z,40
2016-03-28T15:37:04.290Z,40
2016-03-28T15:38:04.309Z,40
2016-03-28T15:39:04.545Z,40
2016-03-28T15:40:04.376Z,35
2016-03-28T15:41:04.395Z,40
2016-03-28T15:42:04.397Z,40
2016-03-28T15:43:04.416Z,40
2016-03-28T15:44:04.450Z,40
2016-03-28T15:45:04.453Z,40
2016-03-28T15:46:04.470Z,40
2016-03-28T15:47:04.489Z,40
2016-03-28T15:48:04.523Z,40
2016-03-28T15:49:04.557Z,45
2016-03-28T15:50:04.575Z,45
2016-03-28T15:51:04.578Z,45
2016-03-28T15:52:04.596Z,45
2016-03-28T15:53:04.630Z,40
2016-03-28T15:54:04.649Z,40
2016-03-28T15:55:04.666Z,40
2016-03-28T15:56:04.747Z,40
2016-03-28T15:57:04.704Z,40
2016-03-28T15:58:04.721Z,40
2016-03-28T15:59:04.755Z,40
2016-03-28T16:00:04.774Z,40
2016-03-28T16:01:04.808Z,45
2016-03-28T16:02:04.873Z,45
2016-03-28T16:03:04.860Z,60
2016-03-28T16:04:04.848Z,50
2016-03-28T16:05:04.881Z,40
2016-03-28T16:06:04.915Z,75
2016-03-28T16:07:04.934Z,35
2016-03-28T16:08:04.936Z,65
2016-03-28T16:09:04.986Z,75
2016-03-28T16:10:04.989Z,75
2016-03-28T16:11:05.022Z,75
2016-03-28T16:12:05.040Z,70
2016-03-28T16:13:05.059Z,70
2016-03-28T16:14:05.061Z,70
2016-03-28T16:15:05.095Z,70
2016-03-28T16:16:05.098Z,65
2016-03-28T16:17:05.148Z,65
2016-03-28T16:18:05.166Z,65
2016-03-28T16:19:05.184Z,65
2016-03-28T16:20:05.203Z,70
2016-03-28T16:21:05.221Z,70
2016-03-28T16:22:05.224Z,75
2016-03-28T16:23:05.258Z,80
2016-03-28T16:24:05.307Z,80
2016-03-28T16:25:05.341Z,80
2016-03-28T16:26:05.344Z,80
2016-03-28T16:27:05.346Z,70
2016-03-28T16:28:05.208Z,65
2016-03-28T16:29:05.383Z,25
2016-03-28T16:30:05.401Z,55
2016-03-28T16:31:05.420Z,30
2016-03-28T16:32:05.485Z,45
2016-03-28T16:33:05.472Z,65
2016-03-28T16:34:05.506Z,65
2016-03-28T16:35:05.493Z,70
2016-03-28T16:36:05.543Z,70
2016-03-28T16:37:05.561Z,35
2016-03-28T16:38:05.595Z,60
2016-03-28T16:39:05.613Z,40
2016-03-28T16:40:05.632Z,80
2016-03-28T16:41:05.665Z,40
2016-03-28T16:42:05.684Z,70
2016-03-28T16:43:05.717Z,55
2016-03-28T16:44:05.720Z,55
2016-03-28T16:45:05.754Z,60
2016-03-28T16:46:05.774Z,25
2016-03-28T16:47:05.777Z,55
2016-03-28T16:48:05.826Z,20
2016-03-28T16:49:05.829Z,75
2016-03-28T16:50:05.862Z,65
2016-03-28T16:51:05.865Z,55
2016-03-28T16:52:05.898Z,45
2016-03-28T16:53:05.917Z,45
2016-03-28T16:54:06.014Z,50
2016-03-28T16:55:05.970Z,45
2016-03-28T16:56:05.989Z,30
2016-03-28T16:57:06.023Z,20
2016-03-28T16:58:06.009Z,20
2016-03-28T16:59:06.059Z,20
2016-03-28T17:00:06.062Z,20
2016-03-28T17:01:06.080Z,20
2016-03-28T17:02:06.114Z,15
2016-03-28T17:03:06.132Z,15
2016-03-28T17:04:06.166Z,20
2016-03-28T17:05:06.152Z,20
2016-03-28T17:06:06.187Z,15
2016-03-28T17:07:06.221Z,15
2016-03-28T17:08:06.224Z,10
2016-03-28T17:09:06.524Z,10
2016-03-28T17:10:06.276Z,10
2016-03-28T17:11:06.294Z,10
2016-03-28T17:12:06.328Z,10
2016-03-28T17:13:06.346Z,10
2016-03-28T17:14:06.349Z,10
2016-03-28T17:15:06.383Z,10
2016-03-28T17:16:06.401Z,10
2016-03-28T17:17:06.436Z,10
2016-03-28T17:18:06.454Z,5
2016-03-28T17:19:06.472Z,5
2016-03-28T17:20:06.509Z,5
2016-03-28T17:21:06.524Z,5
2016-03-28T17:22:06.371Z,5
2016-03-28T17:23:06.530Z,5
2016-03-28T17:24:12.344Z,5
2016-03-28T17:25:06.581Z,5
2016-03-28T17:26:06.615Z,5
2016-03-28T17:27:06.617Z,5
2016-03-28T17:28:06.636Z,5
2016-03-28T17:29:06.670Z,5
2016-03-28T17:30:06.688Z,0
2016-03-28T17:31:06.707Z,0
2016-03-28T17:32:06.725Z,0
2016-03-28T17:33:06.758Z,0
2016-03-28T17:34:06.746Z,0
2016-03-28T17:35:06.811Z,0
2016-03-28T17:36:06.799Z,0
2016-03-28T17:37:06.816Z,0
2016-03-28T17:38:06.851Z,0
2016-03-28T17:39:07.041Z,0
2016-03-28T17:40:06.887Z,0
2016-03-28T17:41:06.890Z,0
2016-03-28T17:42:06.924Z,0
2016-03-28T17:43:06.973Z,0
2016-03-28T17:44:06.945Z,0
2016-03-28T17:45:06.995Z,0
2016-03-28T17:46:06.998Z,0
2016-03-28T17:47:07.015Z,0
2016-03-28T17:48:07.049Z,0
2016-03-28T17:49:07.036Z,0
2016-03-28T17:50:07.086Z,0
2016-03-28T17:51:07.073Z,0
2016-03-28T17:52:07.091Z,0
2016-03-28T17:53:07.124Z,0
2016-03-28T17:54:07.330Z,0
2016-03-28T17:55:07.177Z,0
2016-03-28T17:56:07.195Z,0
2016-03-28T17:57:07.245Z,0
2016-03-28T17:58:07.263Z,0
2016-03-28T17:59:07.266Z,0
2016-03-28T18:00:07.269Z,0
2016-03-28T18:01:07.288Z,0
2016-03-28T18:02:07.305Z,0
2016-03-28T18:03:07.339Z,0
2016-03-28T18:04:07.327Z,0
2016-03-28T18:05:07.376Z,0
2016-03-28T18:06:07.363Z,0
2016-03-28T18:07:07.381Z,0
2016-03-28T18:08:07.399Z,0
2016-03-28T18:09:07.449Z,0
2016-03-28T18:10:07.467Z,0
2016-03-28T18:11:07.454Z,0
2016-03-28T18:12:07.473Z,0
2016-03-28T18:13:07.554Z,0
2016-03-28T18:14:07.540Z,0
2016-03-28T18:15:07.559Z,0
2016-03-28T18:16:07.562Z,0
2016-03-28T18:17:07.564Z,0
2016-03-28T18:18:07.614Z,0
2016-03-28T18:19:07.617Z,0
2016-03-28T18:20:07.651Z,0
2016-03-28T18:21:07.637Z,0
2016-03-28T18:22:07.656Z,0
2016-03-28T18:23:07.706Z,0
2016-03-28T18:24:07.709Z,0
2016-03-28T18:25:07.711Z,0
2016-03-28T18:26:07.745Z,0
2016-03-28T18:27:07.764Z,0
2016-03-28T18:28:07.781Z,0
2016-03-28T18:29:07.784Z,0
2016-03-28T18:30:07.803Z,0
2016-03-28T18:31:07.836Z,0
2016-03-28T18:32:07.839Z,0
2016-03-28T18:33:07.874Z,0
2016-03-28T18:34:07.891Z,0
2016-03-28T18:35:07.972Z,0
2016-03-28T18:36:07.928Z,0
2016-03-28T18:37:07.946Z,0
2016-03-28T18:38:07.949Z,0
2016-03-28T18:39:07.951Z,0
2016-03-28T18:40:07.971Z,0
2016-03-28T18:41:08.020Z,0
2016-03-28T18:42:08.038Z,0
2016-03-28T18:43:08.040Z,0
2016-03-28T18:44:08.059Z,0
2016-03-28T18:45:08.093Z,0
2016-03-28T18:46:08.095Z,0
2016-03-28T18:47:08.114Z,0
2016-03-28T18:48:08.195Z,0
2016-03-28T18:49:08.167Z,0
2016-03-28T18:50:08.170Z,0
2016-03-28T18:51:08.187Z,0
2016-03-28T18:52:08.003Z,0
2016-03-28T18:53:08.208Z,0
2016-03-28T18:54:08.226Z,0
2016-03-28T18:55:08.261Z,0
2016-03-28T18:56:08.263Z,0
2016-03-28T18:57:08.313Z,0
2016-03-28T18:58:08.316Z,0
2016-03-28T18:59:08.334Z,0
2016-03-28T19:00:08.352Z,0
2016-03-28T19:01:08.370Z,0
2016-03-28T19:02:08.388Z,0
2016-03-28T19:03:08.392Z,0
2016-03-28T19:04:08.394Z,0
2016-03-28T19:05:08.412Z,0
2016-03-28T19:06:08.431Z,0
2016-03-28T19:07:08.308Z,0
2016-03-28T19:08:08.447Z,0
2016-03-28T19:09:08.467Z,0
2016-03-28T19:10:08.516Z,0
2016-03-28T19:11:08.519Z,0
2016-03-28T19:12:08.537Z,0
2016-03-28T19:13:08.555Z,0
2016-03-28T19:14:08.589Z,0
2016-03-28T19:15:08.591Z,0
2016-03-28T19:16:08.610Z,0
2016-03-28T19:17:08.627Z,0
2016-03-28T19:18:08.647Z,0
2016-03-28T19:19:08.649Z,0
2016-03-28T19:20:08.683Z,0
2016-03-28T19:21:08.733Z,0
2016-03-28T19:22:08.704Z,0
2016-03-28T19:23:08.707Z,0
2016-03-28T19:24:08.741Z,0
2016-03-28T19:25:08.759Z,0
2016-03-28T19:26:08.824Z,0
2016-03-28T19:27:08.796Z,0
2016-03-28T19:28:08.782Z,0
2016-03-28T19:29:08.818Z,0
2016-03-28T19:30:08.820Z,0
2016-03-28T19:31:08.853Z,0
2016-03-28T19:32:08.904Z,0
2016-03-28T19:33:08.906Z,0
2016-03-28T19:34:08.956Z,0
2016-03-28T19:35:08.912Z,0
2016-03-28T19:36:08.945Z,0
2016-03-28T19:37:08.995Z,0
2016-03-28T19:38:08.982Z,0
2016-03-28T19:39:09.000Z,0
2016-03-28T19:40:08.986Z,0
2016-03-28T19:41:09.021Z,0
2016-03-28T19:42:09.039Z,0
2016-03-28T19:43:09.041Z,0
2016-03-28T19:44:09.076Z,0
2016-03-28T19:45:09.110Z,0
2016-03-28T19:46:09.113Z,0
2016-03-28T19:47:09.116Z,0
2016-03-28T19:48:09.180Z,0
2016-03-28T19:49:09.152Z,0
2016-03-28T19:50:09.170Z,0
2016-03-28T19:51:09.172Z,0
2016-03-28T19:52:09.207Z,0
2016-03-28T19:53:09.225Z,0
2016-03-28T19:54:09.088Z,0
2016-03-28T19:55:09.246Z,0
2016-03-28T19:56:09.296Z,0
2016-03-28T19:57:09.283Z,0
2016-03-28T19:58:09.316Z,0
2016-03-28T19:59:09.319Z,0
2016-03-28T20:00:09.353Z,0
2016-03-28T20:01:09.356Z,0
2016-03-28T20:02:09.390Z,0
2016-03-28T20:03:09.377Z,0
2016-03-28T20:04:09.395Z,0
2016-03-28T20:05:09.414Z,0
2016-03-28T20:06:09.417Z,0
2016-03-28T20:07:09.434Z,0
2016-03-28T20:08:09.484Z,0
2016-03-28T20:09:09.471Z,0
2016-03-28T20:10:09.505Z,0
2016-03-28T20:11:09.523Z,0
2016-03-28T20:12:09.542Z,0
2016-03-28T20:13:09.576Z,0
2016-03-28T20:14:09.579Z,0
2016-03-28T20:15:09.581Z,0
2016-03-28T20:16:09.614Z,0
2016-03-28T20:17:09.665Z,0
2016-03-28T20:18:09.667Z,0
2016-03-28T20:19:09.638Z,0
2016-03-28T20:20:09.672Z,0
2016-03-28T20:21:09.691Z,0
2016-03-28T20:22:09.694Z,0
2016-03-28T20:23:09.572Z,0
2016-03-28T20:24:09.746Z,0
2016-03-28T20:25:09.795Z,0
2016-03-28T20:26:09.767Z,0
2016-03-28T20:27:09.988Z,0
2016-03-28T20:28:09.804Z,0
2016-03-28T20:29:09.806Z,0
2016-03-28T20:30:09.824Z,0
2016-03-28T20:31:09.859Z,0
2016-03-28T20:32:09.877Z,0
2016-03-28T20:33:09.879Z,0
2016-03-28T20:34:09.898Z,0
2016-03-28T20:35:09.916Z,0
2016-03-28T20:36:09.918Z,0
2016-03-28T20:37:09.937Z,0
2016-03-28T20:38:09.955Z,0
2016-03-28T20:39:09.990Z,0
2016-03-28T20:40:10.008Z,0
2016-03-28T20:41:10.011Z,0
2016-03-28T20:42:10.014Z,0
2016-03-28T20:43:10.062Z,0
2016-03-28T20:44:10.081Z,0
2016-03-28T20:45:10.084Z,0
2016-03-28T20:46:10.102Z,0
2016-03-28T20:47:10.151Z,0
2016-03-28T20:48:10.138Z,0
2016-03-28T20:49:10.141Z,0
2016-03-28T20:50:10.175Z,0
2016-03-28T20:51:10.194Z,0
2016-03-28T20:52:10.211Z,0
2016-03-28T20:53:10.214Z,0
2016-03-28T20:54:10.217Z,0
2016-03-28T20:55:10.094Z,0
2016-03-28T20:56:10.269Z,0
2016-03-28T20:57:10.304Z,0
2016-03-28T20:58:10.290Z,0
2016-03-28T20:59:10.325Z,0
2016-03-28T21:00:10.374Z,0
2016-03-28T21:01:10.189Z,0
2016-03-28T21:02:10.364Z,0
2016-03-28T21:03:10.382Z,0
2016-03-28T21:04:10.385Z,0
2016-03-28T21:05:10.387Z,0
2016-03-28T21:06:10.421Z,0
2016-03-28T21:07:10.439Z,0
2016-03-28T21:08:10.459Z,0
2016-03-28T21:09:10.648Z,0
2016-03-28T21:10:10.494Z,0
2016-03-28T21:11:10.497Z,0
2016-03-28T21:12:10.515Z,0
2016-03-28T21:13:10.550Z,0
2016-03-28T21:14:10.553Z,0
2016-03-28T21:15:10.570Z,0
2016-03-28T21:16:10.605Z,0
2016-03-28T21:17:10.639Z,0
2016-03-28T21:18:10.625Z,0
2016-03-28T21:19:10.628Z,0
2016-03-28T21:20:10.646Z,0
2016-03-28T21:21:10.650Z,0
2016-03-28T21:22:10.683Z,0
2016-03-28T21:23:10.732Z,0
2016-03-28T21:24:10.704Z,0
2016-03-28T21:25:10.738Z,0
2016-03-28T21:26:10.741Z,0
2016-03-28T21:27:10.775Z,0
2016-03-28T21:28:10.777Z,0
2016-03-28T21:29:10.796Z,0
2016-03-28T21:30:10.814Z,0
2016-03-28T21:31:10.832Z,0
2016-03-28T21:32:10.834Z,0
2016-03-28T21:33:10.853Z,0
2016-03-28T21:34:10.887Z,0
2016-03-28T21:35:10.906Z,0
2016-03-28T21:36:10.924Z,0
2016-03-28T21:37:10.926Z,0
2016-03-28T21:38:10.960Z,0
2016-03-28T21:39:10.995Z,0
2016-03-28T21:40:10.903Z,0
2016-03-28T21:41:10.984Z,0
2016-03-28T21:42:11.002Z,0
2016-03-28T21:43:11.021Z,0
2016-03-28T21:44:11.023Z,0
2016-03-28T21:45:10.901Z,0
2016-03-28T21:46:11.061Z,0
2016-03-28T21:47:11.063Z,0
2016-03-28T21:48:11.092Z,0
2016-03-28T21:49:11.117Z,0
2016-03-28T21:50:11.111Z,0
2016-03-28T21:51:11.135Z,0
2016-03-28T21:52:11.161Z,0
2016-03-28T21:53:11.172Z,0
2016-03-28T21:54:11.157Z,0
2016-03-28T21:55:11.296Z,0
2016-03-28T21:56:11.170Z,0
2016-03-28T21:57:11.187Z,0
2016-03-28T21:58:11.187Z,0
2016-03-28T21:59:11.219Z,0
2016-03-28T22:00:11.220Z,0
2016-03-28T22:01:11.269Z,0
2016-03-28T22:02:11.271Z,0
2016-03-28T22:03:11.273Z,0
2016-03-28T22:04:11.276Z,0
2016-03-28T22:05:11.309Z,0
2016-03-28T22:06:11.310Z,0
2016-03-28T22:07:11.360Z,0
2016-03-28T22:08:11.347Z,0
2016-03-28T22:09:11.381Z,0
2016-03-28T22:10:11.492Z,0
2016-03-28T22:11:11.400Z,0
2016-03-28T22:12:11.418Z,0
2016-03-28T22:13:11.438Z,0
2016-03-28T22:14:11.580Z,0
2016-03-28T22:15:11.474Z,0
2016-03-28T22:16:11.476Z,0
2016-03-28T22:17:11.494Z,0
2016-03-28T22:18:11.512Z,0
2016-03-28T22:19:11.531Z,0
2016-03-28T22:20:11.580Z,0
2016-03-28T22:21:11.584Z,0
2016-03-28T22:22:11.570Z,0
2016-03-28T22:23:11.604Z,0
2016-03-28T22:24:11.623Z,0
2016-03-28T22:25:11.828Z,0
2016-03-28T22:26:11.628Z,0
2016-03-28T22:27:11.662Z,0
2016-03-28T22:28:11.664Z,0
2016-03-28T22:29:11.698Z,0
2016-03-28T22:30:11.717Z,0
2016-03-28T22:31:11.564Z,0
2016-03-28T22:32:11.722Z,0
2016-03-28T22:33:11.741Z,0
2016-03-28T22:34:11.759Z,0
2016-03-28T22:35:11.917Z,0
2016-03-28T22:36:11.795Z,0
2016-03-28T22:37:11.814Z,0
2016-03-28T22:38:11.832Z,0
2016-03-28T22:39:11.819Z,0
2016-03-28T22:40:12.119Z,0
2016-03-28T22:41:11.887Z,0
2016-03-28T22:42:11.890Z,0
2016-03-28T22:43:11.908Z,0
2016-03-28T22:44:11.910Z,0
2016-03-28T22:45:11.944Z,0
2016-03-28T22:46:11.932Z,0
2016-03-28T22:47:11.965Z,0
2016-03-28T22:48:11.968Z,0
2016-03-28T22:49:12.001Z,0
2016-03-28T22:50:12.021Z,0
2016-03-28T22:51:12.039Z,0
2016-03-28T22:52:12.042Z,0
2016-03-28T22:53:12.060Z,0
2016-03-28T22:54:12.062Z,0
2016-03-28T22:55:12.112Z,0
2016-03-28T22:56:12.099Z,0
2016-03-28T22:57:12.101Z,0
2016-03-28T22:58:12.120Z,0
2016-03-28T22:59:12.153Z,0
2016-03-28T23:00:12.204Z,0
2016-03-28T23:01:12.191Z,0
2016-03-28T23:02:12.178Z,0
2016-03-28T23:03:12.197Z,0
2016-03-28T23:04:12.230Z,0
2016-03-28T23:05:12.248Z,0
2016-03-28T23:06:12.251Z,0
2016-03-28T23:07:12.253Z,0
2016-03-28T23:08:12.256Z,0
2016-03-28T23:09:12.306Z,0
2016-03-28T23:10:12.372Z,0
2016-03-28T23:11:12.343Z,0
2016-03-28T23:12:12.361Z,0
2016-03-28T23:13:12.363Z,0
2016-03-28T23:14:12.413Z,0
2016-03-28T23:15:12.399Z,0
2016-03-28T23:16:12.403Z,0
2016-03-28T23:17:12.437Z,0
2016-03-28T23:18:12.423Z,0
2016-03-28T23:19:12.442Z,0
2016-03-28T23:20:12.476Z,0
2016-03-28T23:21:12.495Z,0
2016-03-28T23:22:12.498Z,0
2016-03-28T23:23:12.500Z,0
2016-03-28T23:24:12.518Z,0
2016-03-28T23:25:12.536Z,0
2016-03-28T23:26:12.555Z,0
2016-03-28T23:27:12.573Z,0
2016-03-28T23:28:12.622Z,0
2016-03-28T23:29:12.595Z,0
2016-03-28T23:30:12.628Z,0
2016-03-28T23:31:12.631Z,0
2016-03-28T23:32:12.650Z,0
2016-03-28T23:33:12.667Z,0
2016-03-28T23:34:12.670Z,0
2016-03-28T23:35:12.703Z,0
2016-03-28T23:36:12.692Z,0
2016-03-28T23:37:12.725Z,0
2016-03-28T23:38:12.711Z,0
2016-03-28T23:39:12.730Z,0
2016-03-28T23:40:12.889Z,0
2016-03-28T23:41:12.782Z,0
2016-03-28T23:42:12.630Z,0
2016-03-28T23:43:12.819Z,0
2016-03-28T23:44:12.807Z,0
2016-03-28T23:45:12.824Z,0
2016-03-28T23:46:12.858Z,0
2016-03-28T23:47:12.877Z,0
2016-03-28T23:48:12.895Z,0
2016-03-28T23:49:12.913Z,0
2016-03-28T23:50:12.916Z,0
2016-03-28T23:51:12.934Z,0
2016-03-28T23:52:12.937Z,0
2016-03-28T23:53:12.971Z,0
2016-03-28T23:54:12.974Z,0
2016-03-28T23:55:13.023Z,0
2016-03-28T23:56:13.010Z,0
2016-03-28T23:57:13.028Z,0
2016-03-28T23:58:13.031Z,0
2016-03-28T23:59:13.050Z,0
